Главная страница
METAR-TAF:

METAR-TAF

Аэропорты :

Эребру, Швеция

широта: 59-14N, долгота: 015-03E, высота над уровнем моря: 57 м

Текущие метеонаблюдения

Эта сводка был подготовлена 17 минут назад, в 09:20 UTC
Ветер 7 Узел от западный-юго-западный, изменяющийся между южный и западно-северо-западный
Температура 20°C
Влажность 83%
Давление 1020 hPa
Видимость 10 км и более

METAR: ESOE 060920Z AUTO 24007KT 190V290 9999 FEW010/// BKN014/// 20/17 Q1020 REDZ

Время: 11:37 (09:37 UTC)

Прогноз

Эта сводка был подготовлена 4 часа и 7 минут назад, в 05:30 UTC
Прогноз действительный с 06-го 06 UTC до 06-го 08 UTC
Ветер 10 Узел от юго-западный
Видимость 10 км и более
Рассеянная облачность на высоте 600 фута
изменения
С 06-го 06 UTC до 06-го 08 UTC
Рассеянная облачность на высоте 1200 фута

TAF: ESOE 060530Z 0606/0608 22010KT 9999 BKN006 BECMG 0606/0608 BKN012

Метеонаблюдения и прогнозы для более 4000 аэропортов (сводки METAR и TAF).

Имеющиеся станции представлены на карте желтыми и красными точками.

Чтобы увидеть название станции, наведите на нее мышь.

Затем щелкните, чтобы увидеть метеонаблюдения и метеопрогнозы.

Управление картой: чтобы увеличить масштаб, щелкните зеленые кнопки с черным крестиком; чтобы уменьшить масштаб, щелкните зеленую кнопку с тире; для просмотра соседних карт щелкайте зеленые стрелки.


METAR-TAF: